Huvudsida
METAR-TAF:

METAR-TAF

Flygplatser :

Militär flygplats Cameri

Novara, Italien

latitud: 45-31N, longitud: 008-40E, höjd: 178 m

Aktuellt väderrapport

Denna rapport gjordes för 3 timmar och 32 minuter sedan, klockan 10:55 UTC
Vind 2 kt varierande vindriktning
Temperatur 12°C
Fuktighet 54%
Tryck 1032 hPa
Sikt 10 km eller mer
Inga moln under 1 500 m eller inga cumulonimbus

METAR: LIMN 221055Z VRB02KT CAVOK 12/03 Q1032 RMK FEW FEW200 VIS MIN 9999 BLU

Tid: 15:27 (14:27 UTC)

Väderprognos

Denna rapport gjordes för 6 timmar och 27 minuter sedan, klockan 08:00 UTC
Prognos gäller från 22 kl. 09 UTC till 22 kl. 18 UTC
Vind 5 kt från nord/nordväst
Sikt 10 km eller mer
Inga moln under 1 500 m eller inga cumulonimbus

TAF: LIMN 220800Z 2209/2218 34005KT CAVOK

Aktuella väderrapporter och prognoser från 4000 flygplatser (METAR- och TAF-rapporter).

De tillgängliga stationerna syns som gula och röda prickar på kartan.

För musen över prickarna för att se namnen på stationerna.

Klicka sedan för att få väderrapporter och prognoser.

För att ändra kartan: Klicka på de gröna knapparna med ett svart kors på för att zooma in; den gröna knappen med ett streck på för att zooma ut; eller på de gröna pilarna för angränsande kartor.


METAR-TAF: